sensor_id;sensor_type;location;lat;lon;timestamp;temperature;humidity
39751;DHT22;37579;51.074;17.004;2022-09-09T00:01:28;25.80;62.30
39751;DHT22;37579;51.074;17.004;2022-09-09T00:03:31;25.70;62.20
39751;DHT22;37579;51.074;17.004;2022-09-09T00:08:57;25.80;62.20
39751;DHT22;37579;51.074;17.004;2022-09-09T00:11:21;25.70;62.10
39751;DHT22;37579;51.074;17.004;2022-09-09T00:13:52;25.70;62.10
39751;DHT22;37579;51.074;17.004;2022-09-09T00:16:20;25.70;62.10
39751;DHT22;37579;51.074;17.004;2022-09-09T00:21:16;25.70;62.00
39751;DHT22;37579;51.074;17.004;2022-09-09T00:23:53;25.70;62.10
39751;DHT22;37579;51.074;17.004;2022-09-09T00:31:26;25.70;62.00
39751;DHT22;37579;51.074;17.004;2022-09-09T00:33:53;25.70;61.90
39751;DHT22;37579;51.074;17.004;2022-09-09T00:36:20;25.70;62.00
39751;DHT22;37579;51.074;17.004;2022-09-09T00:38:49;25.70;62.00
39751;DHT22;37579;51.074;17.004;2022-09-09T01:02:13;25.70;61.90
39751;DHT22;37579;51.074;17.004;2022-09-09T01:04:41;25.70;61.80
39751;DHT22;37579;51.074;17.004;2022-09-09T01:07:12;25.70;61.80
39751;DHT22;37579;51.074;17.004;2022-09-09T01:09:56;25.70;61.80
39751;DHT22;37579;51.074;17.004;2022-09-09T01:12:24;25.70;61.70
39751;DHT22;37579;51.074;17.004;2022-09-09T01:14:57;25.70;61.80
39751;DHT22;37579;51.074;17.004;2022-09-09T01:17:31;25.70;61.70
39751;DHT22;37579;51.074;17.004;2022-09-09T01:20:12;25.70;61.80
39751;DHT22;37579;51.074;17.004;2022-09-09T01:22:53;25.70;61.70
39751;DHT22;37579;51.074;17.004;2022-09-09T01:28:16;25.70;61.70
39751;DHT22;37579;51.074;17.004;2022-09-09T01:30:42;25.70;61.80
39751;DHT22;37579;51.074;17.004;2022-09-09T01:33:14;25.70;61.80
39751;DHT22;37579;51.074;17.004;2022-09-09T01:38:07;25.70;61.60
39751;DHT22;37579;51.074;17.004;2022-09-09T01:40:33;25.70;61.60
39751;DHT22;37579;51.074;17.004;2022-09-09T01:42:59;25.70;61.60
39751;DHT22;37579;51.074;17.004;2022-09-09T01:45:25;25.70;61.70
39751;DHT22;37579;51.074;17.004;2022-09-09T01:47:54;25.70;61.60
39751;DHT22;37579;51.074;17.004;2022-09-09T01:50:36;25.70;61.60
39751;DHT22;37579;51.074;17.004;2022-09-09T01:53:02;25.70;61.50
39751;DHT22;37579;51.074;17.004;2022-09-09T01:55:37;25.60;61.50
39751;DHT22;37579;51.074;17.004;2022-09-09T02:00:32;25.70;61.60
39751;DHT22;37579;51.074;17.004;2022-09-09T02:03:08;25.70;61.60
39751;DHT22;37579;51.074;17.004;2022-09-09T02:08:48;25.70;61.60
39751;DHT22;37579;51.074;17.004;2022-09-09T02:11:18;25.70;61.50
39751;DHT22;37579;51.074;17.004;2022-09-09T02:13:52;25.70;61.50
39751;DHT22;37579;51.074;17.004;2022-09-09T02:16:26;25.70;61.50
39751;DHT22;37579;51.074;17.004;2022-09-09T02:19:00;25.70;61.50
39751;DHT22;37579;51.074;17.004;2022-09-09T02:21:36;25.70;61.50
39751;DHT22;37579;51.074;17.004;2022-09-09T02:24:04;25.70;61.50
39751;DHT22;37579;51.074;17.004;2022-09-09T02:26:32;25.70;61.40
39751;DHT22;37579;51.074;17.004;2022-09-09T02:29:04;25.70;61.40
39751;DHT22;37579;51.074;17.004;2022-09-09T02:31:31;25.70;61.50
39751;DHT22;37579;51.074;17.004;2022-09-09T02:34:03;25.70;61.50
39751;DHT22;37579;51.074;17.004;2022-09-09T02:36:31;25.70;61.30
39751;DHT22;37579;51.074;17.004;2022-09-09T02:38:59;25.60;61.30
39751;DHT22;37579;51.074;17.004;2022-09-09T02:41:31;25.70;62.10
39751;DHT22;37579;51.074;17.004;2022-09-09T02:43:57;25.60;61.40
39751;DHT22;37579;51.074;17.004;2022-09-09T02:49:09;25.70;61.30
39751;DHT22;37579;51.074;17.004;2022-09-09T02:51:40;25.70;61.40
39751;DHT22;37579;51.074;17.004;2022-09-09T02:54:23;25.70;61.30
39751;DHT22;37579;51.074;17.004;2022-09-09T02:56:52;25.60;61.20
39751;DHT22;37579;51.074;17.004;2022-09-09T02:59:23;25.60;61.20
39751;DHT22;37579;51.074;17.004;2022-09-09T03:01:50;25.60;61.20
39751;DHT22;37579;51.074;17.004;2022-09-09T03:04:16;25.60;61.20
39751;DHT22;37579;51.074;17.004;2022-09-09T03:06:42;25.60;61.20
39751;DHT22;37579;51.074;17.004;2022-09-09T03:09:16;25.60;61.20
39751;DHT22;37579;51.074;17.004;2022-09-09T03:11:42;25.60;61.20
39751;DHT22;37579;51.074;17.004;2022-09-09T03:14:08;25.60;61.20
39751;DHT22;37579;51.074;17.004;2022-09-09T03:16:35;25.60;61.10
39751;DHT22;37579;51.074;17.004;2022-09-09T03:19:01;25.60;61.10
39751;DHT22;37579;51.074;17.004;2022-09-09T03:21:27;25.60;61.20
39751;DHT22;37579;51.074;17.004;2022-09-09T03:23:53;25.60;61.10
39751;DHT22;37579;51.074;17.004;2022-09-09T03:26:19;25.60;61.10
39751;DHT22;37579;51.074;17.004;2022-09-09T03:28:46;25.70;61.20
39751;DHT22;37579;51.074;17.004;2022-09-09T03:31:16;25.60;61.10
39751;DHT22;37579;51.074;17.004;2022-09-09T03:33:42;25.60;61.10
39751;DHT22;37579;51.074;17.004;2022-09-09T03:36:10;25.60;61.20
39751;DHT22;37579;51.074;17.004;2022-09-09T03:38:37;25.60;61.10
39751;DHT22;37579;51.074;17.004;2022-09-09T03:41:02;25.60;61.10
39751;DHT22;37579;51.074;17.004;2022-09-09T03:43:29;25.60;61.10
39751;DHT22;37579;51.074;17.004;2022-09-09T03:45:55;25.60;61.10
39751;DHT22;37579;51.074;17.004;2022-09-09T03:48:24;25.60;61.10
39751;DHT22;37579;51.074;17.004;2022-09-09T03:50:52;25.60;61.10
39751;DHT22;37579;51.074;17.004;2022-09-09T03:53:19;25.60;61.10
39751;DHT22;37579;51.074;17.004;2022-09-09T03:55:45;25.60;61.10
39751;DHT22;37579;51.074;17.004;2022-09-09T03:58:12;25.60;61.20
39751;DHT22;37579;51.074;17.004;2022-09-09T04:00:39;25.60;61.10
39751;DHT22;37579;51.074;17.004;2022-09-09T04:03:08;25.60;61.10
39751;DHT22;37579;51.074;17.004;2022-09-09T04:05:34;25.60;61.10
39751;DHT22;37579;51.074;17.004;2022-09-09T04:08:00;25.60;61.00
39751;DHT22;37579;51.074;17.004;2022-09-09T04:10:25;25.60;61.00
39751;DHT22;37579;51.074;17.004;2022-09-09T04:12:53;25.60;61.10
39751;DHT22;37579;51.074;17.004;2022-09-09T04:15:20;25.60;61.10
39751;DHT22;37579;51.074;17.004;2022-09-09T04:17:46;25.60;61.00
39751;DHT22;37579;51.074;17.004;2022-09-09T04:20:12;25.60;60.90
39751;DHT22;37579;51.074;17.004;2022-09-09T04:22:38;25.60;61.10
39751;DHT22;37579;51.074;17.004;2022-09-09T04:25:06;25.60;61.00
39751;DHT22;37579;51.074;17.004;2022-09-09T04:27:32;25.60;61.70
39751;DHT22;37579;51.074;17.004;2022-09-09T04:30:01;25.60;61.00
39751;DHT22;37579;51.074;17.004;2022-09-09T04:32:32;25.60;61.00
39751;DHT22;37579;51.074;17.004;2022-09-09T04:35:02;25.60;60.90
39751;DHT22;37579;51.074;17.004;2022-09-09T04:37:28;25.60;60.90
39751;DHT22;37579;51.074;17.004;2022-09-09T04:39:54;25.60;60.80
39751;DHT22;37579;51.074;17.004;2022-09-09T04:42:20;25.60;60.80
39751;DHT22;37579;51.074;17.004;2022-09-09T04:44:46;25.60;60.80
39751;DHT22;37579;51.074;17.004;2022-09-09T04:47:12;25.60;60.80
39751;DHT22;37579;51.074;17.004;2022-09-09T04:49:38;25.60;60.90
39751;DHT22;37579;51.074;17.004;2022-09-09T04:52:04;25.60;60.90
39751;DHT22;37579;51.074;17.004;2022-09-09T04:54:32;25.60;60.90
39751;DHT22;37579;51.074;17.004;2022-09-09T04:56:58;25.60;60.90
39751;DHT22;37579;51.074;17.004;2022-09-09T04:59:24;25.60;60.80
39751;DHT22;37579;51.074;17.004;2022-09-09T05:01:54;25.60;60.80
39751;DHT22;37579;51.074;17.004;2022-09-09T05:04:21;25.60;60.80
39751;DHT22;37579;51.074;17.004;2022-09-09T05:06:46;25.60;60.80
39751;DHT22;37579;51.074;17.004;2022-09-09T05:09:12;25.60;60.80
39751;DHT22;37579;51.074;17.004;2022-09-09T05:11:38;25.70;60.90
39751;DHT22;37579;51.074;17.004;2022-09-09T05:14:23;25.80;60.80
39751;DHT22;37579;51.074;17.004;2022-09-09T05:16:49;25.80;60.90
39751;DHT22;37579;51.074;17.004;2022-09-09T05:19:15;25.80;60.50
39751;DHT22;37579;51.074;17.004;2022-09-09T05:21:46;25.80;60.90
39751;DHT22;37579;51.074;17.004;2022-09-09T05:24:15;25.90;60.90
39751;DHT22;37579;51.074;17.004;2022-09-09T05:26:42;26.00;60.60
39751;DHT22;37579;51.074;17.004;2022-09-09T05:29:09;26.00;60.90
39751;DHT22;37579;51.074;17.004;2022-09-09T05:31:34;26.10;60.00
39751;DHT22;37579;51.074;17.004;2022-09-09T05:34:03;26.10;59.90
39751;DHT22;37579;51.074;17.004;2022-09-09T05:36:29;26.10;59.80
39751;DHT22;37579;51.074;17.004;2022-09-09T05:38:56;26.20;59.10
39751;DHT22;37579;51.074;17.004;2022-09-09T05:41:23;26.20;59.10
39751;DHT22;37579;51.074;17.004;2022-09-09T05:43:50;26.20;59.70
39751;DHT22;37579;51.074;17.004;2022-09-09T05:46:17;26.20;56.30
39751;DHT22;37579;51.074;17.004;2022-09-09T05:48:45;26.20;56.00
39751;DHT22;37579;51.074;17.004;2022-09-09T05:51:26;26.30;57.20
39751;DHT22;37579;51.074;17.004;2022-09-09T05:53:55;26.30;58.00
39751;DHT22;37579;51.074;17.004;2022-09-09T05:56:25;26.30;58.50
39751;DHT22;37579;51.074;17.004;2022-09-09T05:58:52;26.40;58.90
39751;DHT22;37579;51.074;17.004;2022-09-09T06:01:26;26.60;58.30
39751;DHT22;37579;51.074;17.004;2022-09-09T06:03:52;27.30;56.80
39751;DHT22;37579;51.074;17.004;2022-09-09T06:06:20;28.20;54.50
39751;DHT22;37579;51.074;17.004;2022-09-09T06:08:47;28.70;53.60
39751;DHT22;37579;51.074;17.004;2022-09-09T06:11:16;29.10;52.60
39751;DHT22;37579;51.074;17.004;2022-09-09T06:13:42;28.90;52.80
39751;DHT22;37579;51.074;17.004;2022-09-09T06:16:09;28.50;53.60
39751;DHT22;37579;51.074;17.004;2022-09-09T06:18:38;28.30;54.10
39751;DHT22;37579;51.074;17.004;2022-09-09T06:21:04;28.40;54.60
39751;DHT22;37579;51.074;17.004;2022-09-09T06:23:30;27.80;55.80
39751;DHT22;37579;51.074;17.004;2022-09-09T06:26:00;27.40;57.00
39751;DHT22;37579;51.074;17.004;2022-09-09T06:28:26;27.30;56.90
39751;DHT22;37579;51.074;17.004;2022-09-09T06:31:03;27.00;57.70
39751;DHT22;37579;51.074;17.004;2022-09-09T06:33:34;27.00;57.90
39751;DHT22;37579;51.074;17.004;2022-09-09T06:36:01;27.10;57.90
39751;DHT22;37579;51.074;17.004;2022-09-09T06:38:27;27.00;58.00
39751;DHT22;37579;51.074;17.004;2022-09-09T06:40:54;27.00;58.10
39751;DHT22;37579;51.074;17.004;2022-09-09T06:43:22;27.10;58.90
39751;DHT22;37579;51.074;17.004;2022-09-09T06:45:56;27.10;58.10
39751;DHT22;37579;51.074;17.004;2022-09-09T06:48:22;26.90;58.60
39751;DHT22;37579;51.074;17.004;2022-09-09T06:50:48;26.90;58.70
39751;DHT22;37579;51.074;17.004;2022-09-09T06:53:16;26.90;57.70
39751;DHT22;37579;51.074;17.004;2022-09-09T06:55:42;26.90;57.70
39751;DHT22;37579;51.074;17.004;2022-09-09T06:58:11;26.80;57.30
39751;DHT22;37579;51.074;17.004;2022-09-09T07:00:37;26.90;57.40
39751;DHT22;37579;51.074;17.004;2022-09-09T07:03:04;27.00;56.60
39751;DHT22;37579;51.074;17.004;2022-09-09T07:05:31;26.80;56.90
39751;DHT22;37579;51.074;17.004;2022-09-09T07:07:56;26.80;57.00
39751;DHT22;37579;51.074;17.004;2022-09-09T07:10:22;26.80;56.80
39751;DHT22;37579;51.074;17.004;2022-09-09T07:12:52;26.80;56.70
39751;DHT22;37579;51.074;17.004;2022-09-09T07:15:19;26.80;56.30
39751;DHT22;37579;51.074;17.004;2022-09-09T07:17:44;26.80;56.20
39751;DHT22;37579;51.074;17.004;2022-09-09T07:20:10;26.80;56.30
39751;DHT22;37579;51.074;17.004;2022-09-09T07:22:37;26.70;56.30
39751;DHT22;37579;51.074;17.004;2022-09-09T07:25:03;26.70;56.20
39751;DHT22;37579;51.074;17.004;2022-09-09T07:27:29;26.80;56.50
39751;DHT22;37579;51.074;17.004;2022-09-09T07:29:55;26.90;56.90
39751;DHT22;37579;51.074;17.004;2022-09-09T07:32:21;26.80;56.50
39751;DHT22;37579;51.074;17.004;2022-09-09T07:34:47;27.00;55.40
39751;DHT22;37579;51.074;17.004;2022-09-09T07:37:13;27.00;54.60
39751;DHT22;37579;51.074;17.004;2022-09-09T07:39:41;26.90;54.30
39751;DHT22;37579;51.074;17.004;2022-09-09T07:42:07;26.90;55.00
39751;DHT22;37579;51.074;17.004;2022-09-09T07:44:36;26.90;54.50
39751;DHT22;37579;51.074;17.004;2022-09-09T07:47:06;27.10;54.20
39751;DHT22;37579;51.074;17.004;2022-09-09T07:49:40;27.00;54.60
39751;DHT22;37579;51.074;17.004;2022-09-09T07:52:07;27.10;54.30
39751;DHT22;37579;51.074;17.004;2022-09-09T07:54:34;27.10;54.00
39751;DHT22;37579;51.074;17.004;2022-09-09T07:57:03;26.90;54.30
39751;DHT22;37579;51.074;17.004;2022-09-09T07:59:30;27.00;54.20
39751;DHT22;37579;51.074;17.004;2022-09-09T08:01:56;26.90;54.30
39751;DHT22;37579;51.074;17.004;2022-09-09T08:04:26;27.00;54.10
39751;DHT22;37579;51.074;17.004;2022-09-09T08:06:58;27.10;53.10
39751;DHT22;37579;51.074;17.004;2022-09-09T08:09:25;27.10;52.40
39751;DHT22;37579;51.074;17.004;2022-09-09T08:11:53;27.10;52.50
39751;DHT22;37579;51.074;17.004;2022-09-09T08:14:19;27.10;51.40
39751;DHT22;37579;51.074;17.004;2022-09-09T08:16:46;26.80;51.00
39751;DHT22;37579;51.074;17.004;2022-09-09T08:19:15;26.90;51.30
39751;DHT22;37579;51.074;17.004;2022-09-09T08:21:42;26.90;51.40
39751;DHT22;37579;51.074;17.004;2022-09-09T08:24:08;27.10;52.10
39751;DHT22;37579;51.074;17.004;2022-09-09T08:26:37;27.10;51.60
39751;DHT22;37579;51.074;17.004;2022-09-09T08:29:06;27.20;51.20
39751;DHT22;37579;51.074;17.004;2022-09-09T08:36:26;27.40;50.20
39751;DHT22;37579;51.074;17.004;2022-09-09T08:38:53;27.30;50.20
39751;DHT22;37579;51.074;17.004;2022-09-09T08:52:09;27.00;49.20
39751;DHT22;37579;51.074;17.004;2022-09-09T08:54:39;27.00;49.00
39751;DHT22;37579;51.074;17.004;2022-09-09T08:57:05;26.90;48.10
39751;DHT22;37579;51.074;17.004;2022-09-09T08:59:37;26.80;48.40
39751;DHT22;37579;51.074;17.004;2022-09-09T09:02:06;26.80;49.30
39751;DHT22;37579;51.074;17.004;2022-09-09T09:12:37;26.80;50.90
39751;DHT22;37579;51.074;17.004;2022-09-09T09:27:31;26.80;50.50
39751;DHT22;37579;51.074;17.004;2022-09-09T09:29:58;26.90;50.20
39751;DHT22;37579;51.074;17.004;2022-09-09T09:32:25;26.80;50.50
39751;DHT22;37579;51.074;17.004;2022-09-09T09:34:56;26.50;50.20
39751;DHT22;37579;51.074;17.004;2022-09-09T09:37:31;26.40;50.40
39751;DHT22;37579;51.074;17.004;2022-09-09T09:40:09;26.40;50.90
39751;DHT22;37579;51.074;17.004;2022-09-09T09:42:35;26.40;50.20
39751;DHT22;37579;51.074;17.004;2022-09-09T09:45:15;26.50;49.70
39751;DHT22;37579;51.074;17.004;2022-09-09T09:47:43;26.40;49.30
39751;DHT22;37579;51.074;17.004;2022-09-09T09:50:18;26.60;50.10
39751;DHT22;37579;51.074;17.004;2022-09-09T09:52:53;26.80;50.70
39751;DHT22;37579;51.074;17.004;2022-09-09T09:55:19;26.60;48.70
39751;DHT22;37579;51.074;17.004;2022-09-09T09:57:45;26.50;49.30
39751;DHT22;37579;51.074;17.004;2022-09-09T10:00:13;26.50;50.40
39751;DHT22;37579;51.074;17.004;2022-09-09T10:02:47;26.50;50.00
39751;DHT22;37579;51.074;17.004;2022-09-09T10:05:28;26.50;49.80
39751;DHT22;37579;51.074;17.004;2022-09-09T10:08:04;26.50;49.10
39751;DHT22;37579;51.074;17.004;2022-09-09T10:11:19;26.40;48.60
39751;DHT22;37579;51.074;17.004;2022-09-09T10:21:02;26.50;50.80
39751;DHT22;37579;51.074;17.004;2022-09-09T10:28:28;26.30;49.10
39751;DHT22;37579;51.074;17.004;2022-09-09T10:31:00;26.30;49.20
39751;DHT22;37579;51.074;17.004;2022-09-09T10:38:57;26.30;49.30
39751;DHT22;37579;51.074;17.004;2022-09-09T10:44:12;26.10;49.10
39751;DHT22;37579;51.074;17.004;2022-09-09T10:49:28;26.30;49.20
39751;DHT22;37579;51.074;17.004;2022-09-09T10:54:53;26.40;48.60
39751;DHT22;37579;51.074;17.004;2022-09-09T11:00:40;26.40;49.70
39751;DHT22;37579;51.074;17.004;2022-09-09T11:03:09;26.30;50.00
39751;DHT22;37579;51.074;17.004;2022-09-09T11:05:43;26.10;48.80
39751;DHT22;37579;51.074;17.004;2022-09-09T11:08:18;26.20;49.10
39751;DHT22;37579;51.074;17.004;2022-09-09T11:13:19;26.30;50.20
39751;DHT22;37579;51.074;17.004;2022-09-09T11:15:51;26.40;49.40
39751;DHT22;37579;51.074;17.004;2022-09-09T11:18:21;26.20;48.60
39751;DHT22;37579;51.074;17.004;2022-09-09T11:20:49;26.20;49.20
39751;DHT22;37579;51.074;17.004;2022-09-09T11:23:24;26.30;49.70
39751;DHT22;37579;51.074;17.004;2022-09-09T11:25:52;26.30;49.70
39751;DHT22;37579;51.074;17.004;2022-09-09T11:39:02;26.10;49.50
39751;DHT22;37579;51.074;17.004;2022-09-09T11:41:34;26.00;49.40
39751;DHT22;37579;51.074;17.004;2022-09-09T11:44:09;26.00;49.20
39751;DHT22;37579;51.074;17.004;2022-09-09T11:46:36;26.10;49.70
39751;DHT22;37579;51.074;17.004;2022-09-09T11:49:05;26.20;49.40
39751;DHT22;37579;51.074;17.004;2022-09-09T11:51:32;26.10;49.40
39751;DHT22;37579;51.074;17.004;2022-09-09T11:56:43;26.00;48.80
39751;DHT22;37579;51.074;17.004;2022-09-09T11:59:23;25.90;49.40
39751;DHT22;37579;51.074;17.004;2022-09-09T12:01:50;25.90;49.70
39751;DHT22;37579;51.074;17.004;2022-09-09T12:09:19;25.90;49.40
39751;DHT22;37579;51.074;17.004;2022-09-09T12:11:48;25.80;49.40
39751;DHT22;37579;51.074;17.004;2022-09-09T12:14:34;25.80;49.90
39751;DHT22;37579;51.074;17.004;2022-09-09T12:17:20;25.90;49.80
39751;DHT22;37579;51.074;17.004;2022-09-09T12:19:46;26.10;49.60
39751;DHT22;37579;51.074;17.004;2022-09-09T12:29:48;26.00;49.80
39751;DHT22;37579;51.074;17.004;2022-09-09T12:32:17;25.80;49.10
39751;DHT22;37579;51.074;17.004;2022-09-09T12:35:04;26.00;49.60
39751;DHT22;37579;51.074;17.004;2022-09-09T12:38:07;25.90;49.70
39751;DHT22;37579;51.074;17.004;2022-09-09T12:40:27;26.10;49.10
39751;DHT22;37579;51.074;17.004;2022-09-09T12:42:53;26.10;49.10
39751;DHT22;37579;51.074;17.004;2022-09-09T12:45:21;26.10;48.60
39751;DHT22;37579;51.074;17.004;2022-09-09T12:50:16;26.00;48.00
39751;DHT22;37579;51.074;17.004;2022-09-09T12:52:42;25.90;48.30
39751;DHT22;37579;51.074;17.004;2022-09-09T12:55:15;26.00;48.00
39751;DHT22;37579;51.074;17.004;2022-09-09T12:57:42;26.10;47.90
39751;DHT22;37579;51.074;17.004;2022-09-09T13:00:16;26.10;47.60
39751;DHT22;37579;51.074;17.004;2022-09-09T13:02:46;26.10;47.70
39751;DHT22;37579;51.074;17.004;2022-09-09T13:05:13;26.10;48.30
39751;DHT22;37579;51.074;17.004;2022-09-09T13:07:40;26.10;48.90
39751;DHT22;37579;51.074;17.004;2022-09-09T13:10:05;26.20;48.90
39751;DHT22;37579;51.074;17.004;2022-09-09T13:12:32;26.20;49.30
39751;DHT22;37579;51.074;17.004;2022-09-09T13:14:57;26.30;49.20
39751;DHT22;37579;51.074;17.004;2022-09-09T13:17:24;26.40;49.40
39751;DHT22;37579;51.074;17.004;2022-09-09T13:19:51;26.40;49.50
39751;DHT22;37579;51.074;17.004;2022-09-09T13:22:39;26.40;48.00
39751;DHT22;37579;51.074;17.004;2022-09-09T13:25:16;26.40;48.50
39751;DHT22;37579;51.074;17.004;2022-09-09T13:27:51;26.50;47.30
39751;DHT22;37579;51.074;17.004;2022-09-09T13:30:19;26.50;46.70
39751;DHT22;37579;51.074;17.004;2022-09-09T13:32:47;26.40;47.00
39751;DHT22;37579;51.074;17.004;2022-09-09T13:35:23;26.50;46.60
39751;DHT22;37579;51.074;17.004;2022-09-09T13:37:48;26.40;47.50
39751;DHT22;37579;51.074;17.004;2022-09-09T13:40:18;26.50;46.40
39751;DHT22;37579;51.074;17.004;2022-09-09T13:42:44;26.40;46.80
39751;DHT22;37579;51.074;17.004;2022-09-09T13:45:17;26.50;46.60
39751;DHT22;37579;51.074;17.004;2022-09-09T13:47:45;26.60;46.00
39751;DHT22;37579;51.074;17.004;2022-09-09T13:50:21;26.50;45.50
39751;DHT22;37579;51.074;17.004;2022-09-09T13:52:48;26.60;45.10
39751;DHT22;37579;51.074;17.004;2022-09-09T13:55:15;26.60;45.50
39751;DHT22;37579;51.074;17.004;2022-09-09T13:57:50;26.60;45.90
39751;DHT22;37579;51.074;17.004;2022-09-09T14:00:15;26.60;46.20
39751;DHT22;37579;51.074;17.004;2022-09-09T14:02:41;26.60;46.40
39751;DHT22;37579;51.074;17.004;2022-09-09T14:05:09;26.60;46.60
39751;DHT22;37579;51.074;17.004;2022-09-09T14:07:35;26.50;47.00
39751;DHT22;37579;51.074;17.004;2022-09-09T14:10:01;26.50;47.10
39751;DHT22;37579;51.074;17.004;2022-09-09T14:12:27;26.70;47.40
39751;DHT22;37579;51.074;17.004;2022-09-09T14:14:52;26.70;47.30
39751;DHT22;37579;51.074;17.004;2022-09-09T14:17:18;26.70;46.40
39751;DHT22;37579;51.074;17.004;2022-09-09T14:19:43;26.70;46.20
39751;DHT22;37579;51.074;17.004;2022-09-09T14:22:10;26.70;46.50
39751;DHT22;37579;51.074;17.004;2022-09-09T14:24:36;26.80;46.00
39751;DHT22;37579;51.074;17.004;2022-09-09T14:27:02;26.60;44.20
39751;DHT22;37579;51.074;17.004;2022-09-09T14:29:27;26.70;44.00
39751;DHT22;37579;51.074;17.004;2022-09-09T14:31:53;26.60;44.60
39751;DHT22;37579;51.074;17.004;2022-09-09T14:34:18;26.60;44.60
39751;DHT22;37579;51.074;17.004;2022-09-09T14:36:44;26.70;43.90
39751;DHT22;37579;51.074;17.004;2022-09-09T14:39:10;26.70;44.40
39751;DHT22;37579;51.074;17.004;2022-09-09T14:41:35;26.70;44.90
39751;DHT22;37579;51.074;17.004;2022-09-09T14:44:01;26.70;45.50
39751;DHT22;37579;51.074;17.004;2022-09-09T14:46:27;26.70;45.50
39751;DHT22;37579;51.074;17.004;2022-09-09T14:48:52;26.70;45.30
39751;DHT22;37579;51.074;17.004;2022-09-09T14:51:20;26.70;45.20
39751;DHT22;37579;51.074;17.004;2022-09-09T14:53:47;26.70;45.50
39751;DHT22;37579;51.074;17.004;2022-09-09T14:56:17;26.70;45.90
39751;DHT22;37579;51.074;17.004;2022-09-09T14:58:43;26.70;46.10
39751;DHT22;37579;51.074;17.004;2022-09-09T15:01:10;26.70;46.10
39751;DHT22;37579;51.074;17.004;2022-09-09T15:03:36;26.60;46.40
39751;DHT22;37579;51.074;17.004;2022-09-09T15:06:12;26.70;46.80
39751;DHT22;37579;51.074;17.004;2022-09-09T15:08:39;26.70;46.60
39751;DHT22;37579;51.074;17.004;2022-09-09T15:11:05;26.70;46.80
39751;DHT22;37579;51.074;17.004;2022-09-09T15:13:34;26.60;47.10
39751;DHT22;37579;51.074;17.004;2022-09-09T15:16:12;26.60;47.10
39751;DHT22;37579;51.074;17.004;2022-09-09T15:18:38;26.70;47.10
39751;DHT22;37579;51.074;17.004;2022-09-09T15:21:10;26.70;46.90
39751;DHT22;37579;51.074;17.004;2022-09-09T15:23:36;26.60;47.20
39751;DHT22;37579;51.074;17.004;2022-09-09T15:26:02;26.70;47.10
39751;DHT22;37579;51.074;17.004;2022-09-09T15:28:28;26.60;47.20
39751;DHT22;37579;51.074;17.004;2022-09-09T15:30:54;26.70;47.40
39751;DHT22;37579;51.074;17.004;2022-09-09T15:33:22;26.70;47.40
39751;DHT22;37579;51.074;17.004;2022-09-09T15:35:47;26.70;47.80
39751;DHT22;37579;51.074;17.004;2022-09-09T15:38:15;26.70;47.30
39751;DHT22;37579;51.074;17.004;2022-09-09T15:40:41;26.80;47.60
39751;DHT22;37579;51.074;17.004;2022-09-09T15:43:08;26.80;48.00
39751;DHT22;37579;51.074;17.004;2022-09-09T15:45:35;26.70;47.90
39751;DHT22;37579;51.074;17.004;2022-09-09T15:48:01;26.80;48.50
39751;DHT22;37579;51.074;17.004;2022-09-09T15:50:26;26.80;48.40
39751;DHT22;37579;51.074;17.004;2022-09-09T15:52:52;26.80;48.60
39751;DHT22;37579;51.074;17.004;2022-09-09T15:55:19;26.70;48.90
39751;DHT22;37579;51.074;17.004;2022-09-09T15:57:51;26.80;48.90
39751;DHT22;37579;51.074;17.004;2022-09-09T16:00:18;26.80;48.90
39751;DHT22;37579;51.074;17.004;2022-09-09T16:02:47;26.70;49.00
39751;DHT22;37579;51.074;17.004;2022-09-09T16:05:13;26.70;49.20
39751;DHT22;37579;51.074;17.004;2022-09-09T16:07:39;26.70;49.00
39751;DHT22;37579;51.074;17.004;2022-09-09T16:10:05;26.70;49.30
39751;DHT22;37579;51.074;17.004;2022-09-09T16:12:31;26.70;49.30
39751;DHT22;37579;51.074;17.004;2022-09-09T16:14:56;26.70;49.30
39751;DHT22;37579;51.074;17.004;2022-09-09T16:17:22;26.70;49.20
39751;DHT22;37579;51.074;17.004;2022-09-09T16:19:48;26.70;49.30
39751;DHT22;37579;51.074;17.004;2022-09-09T16:22:13;26.70;49.30
39751;DHT22;37579;51.074;17.004;2022-09-09T16:24:40;26.70;49.60
39751;DHT22;37579;51.074;17.004;2022-09-09T16:27:06;26.70;49.60
39751;DHT22;37579;51.074;17.004;2022-09-09T16:29:32;26.80;49.50
39751;DHT22;37579;51.074;17.004;2022-09-09T16:31:58;26.70;49.60
39751;DHT22;37579;51.074;17.004;2022-09-09T16:34:25;26.70;49.60
39751;DHT22;37579;51.074;17.004;2022-09-09T16:36:51;26.70;49.50
39751;DHT22;37579;51.074;17.004;2022-09-09T16:39:17;26.70;49.60
39751;DHT22;37579;51.074;17.004;2022-09-09T16:41:44;26.70;49.60
39751;DHT22;37579;51.074;17.004;2022-09-09T16:44:10;26.70;49.70
39751;DHT22;37579;51.074;17.004;2022-09-09T16:46:37;26.70;49.80
39751;DHT22;37579;51.074;17.004;2022-09-09T16:49:05;26.70;49.70
39751;DHT22;37579;51.074;17.004;2022-09-09T16:51:35;26.70;49.80
39751;DHT22;37579;51.074;17.004;2022-09-09T16:54:02;26.70;49.70
39751;DHT22;37579;51.074;17.004;2022-09-09T16:56:29;26.70;49.90
39751;DHT22;37579;51.074;17.004;2022-09-09T16:58:59;26.70;49.90
39751;DHT22;37579;51.074;17.004;2022-09-09T17:01:26;26.70;49.90
39751;DHT22;37579;51.074;17.004;2022-09-09T17:03:52;26.70;49.90
39751;DHT22;37579;51.074;17.004;2022-09-09T17:06:19;26.70;50.00
39751;DHT22;37579;51.074;17.004;2022-09-09T17:08:44;26.70;50.00
39751;DHT22;37579;51.074;17.004;2022-09-09T17:11:11;26.70;50.00
39751;DHT22;37579;51.074;17.004;2022-09-09T17:13:39;26.70;50.00
39751;DHT22;37579;51.074;17.004;2022-09-09T17:16:05;26.70;50.00
39751;DHT22;37579;51.074;17.004;2022-09-09T17:18:30;26.70;50.10
39751;DHT22;37579;51.074;17.004;2022-09-09T17:21:01;26.70;50.00
39751;DHT22;37579;51.074;17.004;2022-09-09T17:23:28;26.70;50.10
39751;DHT22;37579;51.074;17.004;2022-09-09T17:25:57;26.70;50.10
39751;DHT22;37579;51.074;17.004;2022-09-09T17:28:23;26.70;50.30
39751;DHT22;37579;51.074;17.004;2022-09-09T17:30:52;26.70;50.20
39751;DHT22;37579;51.074;17.004;2022-09-09T17:33:18;26.70;50.30
39751;DHT22;37579;51.074;17.004;2022-09-09T17:35:45;26.70;50.20
39751;DHT22;37579;51.074;17.004;2022-09-09T17:38:11;26.70;51.00
39751;DHT22;37579;51.074;17.004;2022-09-09T17:40:37;26.70;50.40
39751;DHT22;37579;51.074;17.004;2022-09-09T17:43:03;26.70;50.40
39751;DHT22;37579;51.074;17.004;2022-09-09T17:45:29;26.70;50.30